Time;durP1;ratioP1;P1;durP2;ratioP2;P2;SDS_P1;SDS_P2;PMS_P1;PMS_P2;Temp;Humidity;BMP_temperature;BMP_pressure;BME280_temperature;BME280_humidity;BME280_pressure;Samples;Min_cycle;Max_cycle;Signal;HPM_P1;HPM_P2
2021/09/05 00:00:00;;;;;;;;;11.60;10.00;;;;;;;;5075877;28;8927;-82
2021/09/05 00:02:29;;;;;;;;;10.60;10.60;;;;;;;;5067017;28;8966;-83
2021/09/05 00:04:56;;;;;;;;;14.40;14.40;;;;;;;;5073591;28;8990;-83
2021/09/05 00:07:23;;;;;;;;;13.20;12.40;;;;;;;;5064876;28;8974;-83
2021/09/05 00:09:51;;;;;;;;;11.40;11.00;;;;;;;;5064343;28;8881;-82
2021/09/05 00:12:18;;;;;;;;;12.75;9.75;;;;;;;;5057674;28;8879;-83
2021/09/05 00:14:45;;;;;;;;;11.40;11.40;;;;;;;;5068230;28;8868;-83
2021/09/05 00:17:13;;;;;;;;;13.50;13.50;;;;;;;;5066344;28;8983;-79
2021/09/05 00:19:42;;;;;;;;;13.25;13.25;;;;;;;;5061507;28;8915;-81
2021/09/05 00:22:09;;;;;;;;;10.60;10.60;;;;;;;;5066134;28;9336;-80
2021/09/05 00:24:36;;;;;;;;;12.40;10.20;;;;;;;;5067677;28;8879;-80
2021/09/05 00:27:04;;;;;;;;;12.75;12.75;;;;;;;;5075737;28;8882;-80
2021/09/05 00:29:32;;;;;;;;;12.60;12.60;;;;;;;;5078817;28;8889;-80
2021/09/05 00:31:59;;;;;;;;;16.25;16.25;;;;;;;;5078548;28;8812;-81
2021/09/05 00:34:26;;;;;;;;;16.75;15.00;;;;;;;;5067009;28;8860;-80
2021/09/05 00:36:55;;;;;;;;;13.00;13.00;;;;;;;;5083285;28;8869;-80
2021/09/05 00:39:22;;;;;;;;;15.25;13.00;;;;;;;;5078934;28;8869;-81
2021/09/05 00:41:49;;;;;;;;;10.75;10.75;;;;;;;;5084384;28;8877;-75
2021/09/05 00:44:17;;;;;;;;;13.75;13.75;;;;;;;;5071590;28;8870;-80
2021/09/05 00:46:44;;;;;;;;;13.00;11.50;;;;;;;;5077214;28;8897;-79
2021/09/05 00:49:12;;;;;;;;;15.50;13.75;;;;;;;;5077720;28;8857;-81
2021/09/05 00:51:41;;;;;;;;;14.50;12.75;;;;;;;;5072311;28;8883;-81
2021/09/05 00:54:11;;;;;;;;;13.00;13.00;;;;;;;;5062039;28;8882;-80
2021/09/05 00:56:42;;;;;;;;;12.00;10.75;;;;;;;;5062582;28;8952;-81
2021/09/05 00:59:13;;;;;;;;;16.50;15.75;;;;;;;;5069832;28;8873;-80
2021/09/05 01:01:40;;;;;;;;;11.00;11.00;;;;;;;;5071098;28;8836;-81
2021/09/05 01:04:08;;;;;;;;;12.75;10.25;;;;;;;;5067168;28;8953;-79
2021/09/05 01:06:36;;;;;;;;;11.00;11.00;;;;;;;;5081796;28;8869;-78
2021/09/05 01:09:05;;;;;;;;;12.50;12.50;;;;;;;;5087604;28;8869;-81
2021/09/05 01:11:34;;;;;;;;;15.00;15.00;;;;;;;;5058135;28;8910;-81
2021/09/05 01:14:04;;;;;;;;;13.50;12.00;;;;;;;;5070235;28;8885;-80
2021/09/05 01:16:33;;;;;;;;;13.75;12.25;;;;;;;;5033961;28;8876;-78
2021/09/05 01:19:05;;;;;;;;;10.75;10.75;;;;;;;;5072466;28;8880;-82
2021/09/05 01:21:32;;;;;;;;;15.00;14.25;;;;;;;;5087487;28;8946;-79
2021/09/05 01:24:00;;;;;;;;;11.25;11.25;;;;;;;;5070529;28;8855;-80
2021/09/05 01:26:30;;;;;;;;;12.75;12.75;;;;;;;;5078354;28;8869;-79
2021/09/05 01:28:59;;;;;;;;;12.50;12.00;;;;;;;;5080849;28;9665;-81
2021/09/05 01:31:36;;;;;;;;;11.50;11.00;;;;;;;;5065779;28;8850;-79
2021/09/05 01:34:03;;;;;;;;;12.00;10.75;;;;;;;;5043088;28;8877;-80
2021/09/05 01:36:30;;;;;;;;;13.50;13.50;;;;;;;;5072798;28;8883;-81
2021/09/05 01:38:57;;;;;;;;;10.67;10.67;;;;;;;;5082244;28;8888;-79
2021/09/05 01:41:25;;;;;;;;;12.00;12.00;;;;;;;;5087586;28;8879;-81
2021/09/05 01:43:59;;;;;;;;;15.75;15.50;;;;;;;;5056521;28;8898;-79
2021/09/05 01:46:26;;;;;;;;;8.75;8.75;;;;;;;;5075688;28;9010;-80
2021/09/05 01:48:53;;;;;;;;;13.75;13.75;;;;;;;;5064449;28;8864;-81
2021/09/05 01:51:21;;;;;;;;;13.50;12.25;;;;;;;;5058355;28;8915;-81
2021/09/05 01:53:48;;;;;;;;;12.25;12.25;;;;;;;;5069227;28;8872;-80
2021/09/05 01:56:16;;;;;;;;;14.25;12.50;;;;;;;;5076838;28;8880;-82
2021/09/05 01:58:43;;;;;;;;;16.00;13.00;;;;;;;;5069245;28;8848;-82
2021/09/05 02:01:12;;;;;;;;;13.50;12.25;;;;;;;;5082861;28;9789;-81
2021/09/05 02:03:39;;;;;;;;;17.75;13.00;;;;;;;;5086639;28;8885;-74
2021/09/05 02:06:07;;;;;;;;;13.00;12.50;;;;;;;;5084818;28;8923;-81
2021/09/05 02:08:34;;;;;;;;;11.25;11.25;;;;;;;;5074001;28;8982;-78
2021/09/05 02:11:01;;;;;;;;;11.00;11.00;;;;;;;;5070246;28;9034;-77
2021/09/05 02:13:28;;;;;;;;;12.50;10.75;;;;;;;;5068730;28;8861;-81
2021/09/05 02:15:56;;;;;;;;;15.00;12.75;;;;;;;;5070300;28;8991;-81
2021/09/05 02:18:24;;;;;;;;;13.50;12.00;;;;;;;;5069625;28;9004;-82
2021/09/05 02:20:51;;;;;;;;;18.25;18.00;;;;;;;;5085763;28;8889;-80
2021/09/05 02:23:19;;;;;;;;;15.25;15.25;;;;;;;;5074881;28;8849;-81
2021/09/05 02:25:46;;;;;;;;;13.75;13.75;;;;;;;;5055799;28;8875;-79
2021/09/05 02:28:14;;;;;;;;;13.25;13.25;;;;;;;;5069713;28;8857;-82
2021/09/05 02:30:41;;;;;;;;;15.25;13.50;;;;;;;;5082049;28;8825;-81
2021/09/05 02:33:08;;;;;;;;;16.00;14.00;;;;;;;;5074800;28;8849;-81
2021/09/05 02:35:37;;;;;;;;;17.00;17.00;;;;;;;;5077940;28;8881;-79
2021/09/05 02:38:04;;;;;;;;;14.75;12.75;;;;;;;;5079222;28;8885;-81
2021/09/05 02:40:32;;;;;;;;;14.25;14.25;;;;;;;;5077605;28;8868;-81
2021/09/05 02:42:59;;;;;;;;;16.50;15.25;;;;;;;;5065631;28;9707;-83
2021/09/05 02:45:26;;;;;;;;;13.50;10.75;;;;;;;;5071946;28;8868;-81
2021/09/05 02:47:54;;;;;;;;;16.00;16.00;;;;;;;;5024194;28;1415158;-82
2021/09/05 02:50:21;;;;;;;;;17.75;17.50;;;;;;;;5062191;28;8848;-84
2021/09/05 02:52:50;;;;;;;;;15.25;15.25;;;;;;;;5053197;28;8857;-82
2021/09/05 02:55:17;;;;;;;;;12.25;12.25;;;;;;;;5071693;28;8886;-82
2021/09/05 02:57:45;;;;;;;;;14.00;14.00;;;;;;;;5047084;28;8859;-83
2021/09/05 03:00:13;;;;;;;;;18.75;18.75;;;;;;;;5064890;28;8887;-82
2021/09/05 03:02:40;;;;;;;;;18.25;18.25;;;;;;;;5065201;28;8868;-83
2021/09/05 03:05:07;;;;;;;;;19.75;18.00;;;;;;;;5067181;28;8879;-83
2021/09/05 03:07:35;;;;;;;;;18.00;18.00;;;;;;;;5067810;28;8896;-83
2021/09/05 03:10:04;;;;;;;;;20.25;16.75;;;;;;;;5080243;28;8884;-82
2021/09/05 03:12:31;;;;;;;;;17.50;15.75;;;;;;;;5070329;28;8851;-82
2021/09/05 03:14:58;;;;;;;;;16.25;14.50;;;;;;;;5058929;28;9671;-82
2021/09/05 03:17:26;;;;;;;;;14.75;14.75;;;;;;;;5062026;28;8871;-81
2021/09/05 03:19:53;;;;;;;;;19.75;14.25;;;;;;;;5077820;28;8894;-80
2021/09/05 03:22:21;;;;;;;;;15.00;15.00;;;;;;;;5083727;28;8896;-82
2021/09/05 03:24:48;;;;;;;;;17.50;17.50;;;;;;;;5080480;28;8988;-82
2021/09/05 03:27:17;;;;;;;;;20.00;14.75;;;;;;;;5082150;28;8852;-82
2021/09/05 03:29:44;;;;;;;;;17.75;17.75;;;;;;;;5068659;28;8995;-82
2021/09/05 03:32:11;;;;;;;;;16.00;16.00;;;;;;;;5075217;28;8809;-81
2021/09/05 03:34:39;;;;;;;;;14.50;13.50;;;;;;;;5060394;28;8885;-82
2021/09/05 03:37:06;;;;;;;;;13.25;13.25;;;;;;;;5071649;28;8856;-82
2021/09/05 03:39:34;;;;;;;;;17.25;17.25;;;;;;;;5069209;28;8865;-81
2021/09/05 03:42:01;;;;;;;;;19.25;16.50;;;;;;;;5066557;28;8988;-83
2021/09/05 03:44:30;;;;;;;;;18.75;15.75;;;;;;;;5079611;28;8873;-76
2021/09/05 03:46:57;;;;;;;;;14.00;14.00;;;;;;;;5069581;28;8878;-83
2021/09/05 03:49:24;;;;;;;;;15.00;14.50;;;;;;;;5062829;28;8892;-82
2021/09/05 03:51:52;;;;;;;;;16.00;15.00;;;;;;;;5058843;28;8854;-83
2021/09/05 03:54:19;;;;;;;;;18.00;18.00;;;;;;;;5062218;28;9738;-82
2021/09/05 03:56:47;;;;;;;;;22.25;20.00;;;;;;;;5065306;28;8864;-81
2021/09/05 03:59:15;;;;;;;;;16.50;15.75;;;;;;;;5068174;28;8872;-82
2021/09/05 04:01:44;;;;;;;;;19.75;19.75;;;;;;;;5065224;28;8824;-83
2021/09/05 04:04:11;;;;;;;;;16.75;16.75;;;;;;;;5064941;28;8848;-84
2021/09/05 04:06:38;;;;;;;;;21.00;19.75;;;;;;;;5078072;28;8910;-82
2021/09/05 04:09:17;;;;;;;;;20.75;18.25;;;;;;;;5076245;28;8883;-82
2021/09/05 04:11:44;;;;;;;;;22.75;17.75;;;;;;;;5071270;28;8941;-83
2021/09/05 04:14:11;;;;;;;;;23.75;23.75;;;;;;;;5068192;28;8888;-83
2021/09/05 04:16:39;;;;;;;;;23.25;19.50;;;;;;;;5077473;28;8893;-83
2021/09/05 04:19:07;;;;;;;;;19.50;18.50;;;;;;;;5074071;28;8934;-81
2021/09/05 04:21:35;;;;;;;;;20.00;17.25;;;;;;;;5067858;28;8917;-80
2021/09/05 04:24:02;;;;;;;;;17.75;16.50;;;;;;;;5066896;28;8868;-83
2021/09/05 04:26:29;;;;;;;;;17.25;17.25;;;;;;;;5057199;28;8853;-80
2021/09/05 04:28:56;;;;;;;;;15.25;13.75;;;;;;;;5083551;28;9638;-82
2021/09/05 04:31:24;;;;;;;;;15.75;14.50;;;;;;;;5070752;28;8863;-84
2021/09/05 04:33:51;;;;;;;;;15.25;15.25;;;;;;;;5064081;28;8863;-81
2021/09/05 04:36:19;;;;;;;;;17.75;15.50;;;;;;;;5082327;28;8911;-84
2021/09/05 04:38:47;;;;;;;;;20.25;18.50;;;;;;;;5079175;28;9626;-82
2021/09/05 04:41:14;;;;;;;;;18.00;18.00;;;;;;;;5080935;28;8904;-81
2021/09/05 04:43:41;;;;;;;;;13.00;13.00;;;;;;;;5073799;28;8887;-85
2021/09/05 04:46:08;;;;;;;;;16.25;14.25;;;;;;;;5061405;28;9610;-83
2021/09/05 04:48:36;;;;;;;;;15.25;15.25;;;;;;;;5069750;28;8891;-85
2021/09/05 04:51:03;;;;;;;;;18.00;18.00;;;;;;;;5064352;28;8876;-82
2021/09/05 04:53:31;;;;;;;;;11.50;11.50;;;;;;;;5076742;28;8900;-84
2021/09/05 04:55:59;;;;;;;;;14.50;13.00;;;;;;;;5075362;28;8872;-81
2021/09/05 04:58:27;;;;;;;;;13.25;13.25;;;;;;;;5063691;28;8974;-83
2021/09/05 05:00:54;;;;;;;;;14.50;14.50;;;;;;;;5050130;28;8822;-83
2021/09/05 05:03:21;;;;;;;;;12.40;12.40;;;;;;;;5062768;28;9011;-84
2021/09/05 05:05:48;;;;;;;;;18.25;14.50;;;;;;;;5054890;28;8888;-82
2021/09/05 05:08:16;;;;;;;;;13.50;13.50;;;;;;;;5077912;28;8881;-82
2021/09/05 05:10:46;;;;;;;;;15.50;15.25;;;;;;;;5071904;28;8898;-82
2021/09/05 05:13:13;;;;;;;;;16.40;15.40;;;;;;;;5078344;28;8909;-83
2021/09/05 05:15:42;;;;;;;;;13.00;13.00;;;;;;;;5064841;28;8875;-82
2021/09/05 05:18:09;;;;;;;;;10.50;10.50;;;;;;;;5069749;28;8852;-81
2021/09/05 05:20:36;;;;;;;;;13.50;12.00;;;;;;;;5073556;28;8857;-83
2021/09/05 05:23:03;;;;;;;;;15.75;14.75;;;;;;;;5075549;28;8876;-82
2021/09/05 05:25:31;;;;;;;;;12.50;12.25;;;;;;;;5063532;28;8880;-81
2021/09/05 05:27:59;;;;;;;;;16.25;15.50;;;;;;;;5064122;28;8874;-80
2021/09/05 05:30:27;;;;;;;;;10.75;10.75;;;;;;;;5074702;28;8798;-83
2021/09/05 05:32:55;;;;;;;;;20.25;18.50;;;;;;;;5053812;28;8918;-82
2021/09/05 05:35:23;;;;;;;;;16.00;14.50;;;;;;;;5082376;28;8853;-80
2021/09/05 05:37:50;;;;;;;;;14.25;14.25;;;;;;;;5044109;28;9003;-80
2021/09/05 05:40:22;;;;;;;;;15.00;15.00;;;;;;;;5069451;28;8862;-77
2021/09/05 05:42:50;;;;;;;;;17.25;15.75;;;;;;;;5077043;28;8857;-82
2021/09/05 05:45:18;;;;;;;;;17.00;15.75;;;;;;;;5062665;28;8883;-79
2021/09/05 05:47:46;;;;;;;;;14.50;14.50;;;;;;;;5060901;28;8878;-77
2021/09/05 05:50:13;;;;;;;;;14.00;14.00;;;;;;;;5062140;28;8884;-77
2021/09/05 05:52:41;;;;;;;;;16.25;16.25;;;;;;;;5065229;28;8868;-77
2021/09/05 05:55:09;;;;;;;;;16.00;15.00;;;;;;;;5065648;28;9619;-79
2021/09/05 05:57:36;;;;;;;;;14.25;13.75;;;;;;;;5066561;28;8916;-79
2021/09/05 06:00:05;;;;;;;;;17.00;17.00;;;;;;;;5064230;28;8863;-80
2021/09/05 06:02:34;;;;;;;;;17.00;17.00;;;;;;;;5066181;28;8922;-78
2021/09/05 06:05:01;;;;;;;;;14.60;14.60;;;;;;;;5064654;28;8844;-77
2021/09/05 06:07:29;;;;;;;;;17.25;14.75;;;;;;;;5065640;28;8937;-77
2021/09/05 06:09:56;;;;;;;;;22.00;18.75;;;;;;;;5047735;28;8994;-77
2021/09/05 06:12:23;;;;;;;;;20.80;17.40;;;;;;;;5064606;28;8864;-78
2021/09/05 06:14:51;;;;;;;;;20.25;19.25;;;;;;;;5062600;28;8858;-81
2021/09/05 06:17:18;;;;;;;;;19.75;16.75;;;;;;;;5064300;28;8973;-80
2021/09/05 06:19:47;;;;;;;;;15.80;15.20;;;;;;;;5048050;28;8882;-81
2021/09/05 06:22:15;;;;;;;;;18.00;16.00;;;;;;;;5058911;28;8868;-78
2021/09/05 06:24:42;;;;;;;;;14.80;14.80;;;;;;;;5064770;28;8860;-77
2021/09/05 06:27:09;;;;;;;;;14.60;13.80;;;;;;;;5064066;28;8879;-78
2021/09/05 06:29:37;;;;;;;;;14.40;12.40;;;;;;;;5065838;28;8883;-79
2021/09/05 06:32:05;;;;;;;;;15.40;15.00;;;;;;;;5064640;28;8836;-78
2021/09/05 06:34:32;;;;;;;;;15.20;15.20;;;;;;;;5067176;28;8863;-78
2021/09/05 06:37:01;;;;;;;;;20.00;20.00;;;;;;;;5065004;28;8870;-80
2021/09/05 06:39:29;;;;;;;;;16.20;16.20;;;;;;;;5064768;28;8888;-80
2021/09/05 06:41:58;;;;;;;;;18.20;16.60;;;;;;;;5062813;28;8922;-80
2021/09/05 06:44:25;;;;;;;;;15.40;14.00;;;;;;;;5065577;28;8881;-79
2021/09/05 06:46:52;;;;;;;;;19.40;16.40;;;;;;;;5065142;28;8852;-79
2021/09/05 06:49:20;;;;;;;;;14.60;14.60;;;;;;;;5063061;28;8892;-80
2021/09/05 06:51:47;;;;;;;;;19.60;16.60;;;;;;;;5064748;28;8953;-82
2021/09/05 06:54:15;;;;;;;;;14.80;14.80;;;;;;;;5066190;28;8871;-82
2021/09/05 06:56:43;;;;;;;;;17.00;17.00;;;;;;;;5064134;28;8856;-78
2021/09/05 06:59:10;;;;;;;;;20.60;18.20;;;;;;;;5062005;28;8872;-82
2021/09/05 07:01:37;;;;;;;;;15.00;15.00;;;;;;;;5063372;28;8828;-80
2021/09/05 07:04:05;;;;;;;;;16.20;16.20;;;;;;;;5065464;28;8875;-82
2021/09/05 07:06:32;;;;;;;;;17.20;17.20;;;;;;;;5045293;28;9681;-79
2021/09/05 07:08:59;;;;;;;;;13.80;13.00;;;;;;;;5065100;28;8910;-82
2021/09/05 07:11:28;;;;;;;;;17.80;17.00;;;;;;;;5064134;28;8864;-81
2021/09/05 07:13:56;;;;;;;;;19.60;19.00;;;;;;;;5060173;28;8882;-83
2021/09/05 07:16:23;;;;;;;;;17.40;17.40;;;;;;;;5062424;28;8901;-81
2021/09/05 07:18:50;;;;;;;;;17.80;17.40;;;;;;;;5062862;28;8926;-77
2021/09/05 07:21:17;;;;;;;;;17.20;17.20;;;;;;;;5064752;28;8890;-80
2021/09/05 07:23:45;;;;;;;;;18.00;16.80;;;;;;;;5061031;28;8859;-80
2021/09/05 07:26:12;;;;;;;;;23.80;21.60;;;;;;;;5064102;28;8942;-78
2021/09/05 07:28:40;;;;;;;;;19.20;17.40;;;;;;;;5063691;28;8872;-76
2021/09/05 07:31:08;;;;;;;;;7.40;7.40;;;;;;;;5062859;28;8876;-76
2021/09/05 07:33:35;;;;;;;;;19.00;18.80;;;;;;;;5064136;28;8856;-78
2021/09/05 07:36:02;;;;;;;;;21.20;19.00;;;;;;;;5062066;28;8848;-75
2021/09/05 07:38:30;;;;;;;;;21.20;19.60;;;;;;;;5062443;28;8898;-75
2021/09/05 07:40:57;;;;;;;;;23.40;23.40;;;;;;;;5061145;28;8974;-78
2021/09/05 07:43:25;;;;;;;;;23.40;22.80;;;;;;;;5060340;28;9684;-77
2021/09/05 07:45:54;;;;;;;;;20.40;20.40;;;;;;;;5064768;28;8864;-74
2021/09/05 07:48:21;;;;;;;;;21.20;20.40;;;;;;;;5061840;28;9630;-73
2021/09/05 07:50:48;;;;;;;;;26.00;23.40;;;;;;;;5062683;28;8873;-71
2021/09/05 07:53:16;;;;;;;;;19.80;19.80;;;;;;;;5058042;28;8872;-73
2021/09/05 07:55:43;;;;;;;;;18.20;17.00;;;;;;;;5057095;28;9614;-74
2021/09/05 07:58:11;;;;;;;;;17.40;15.20;;;;;;;;5058415;28;8941;-73
2021/09/05 08:00:38;;;;;;;;;16.20;16.20;;;;;;;;5057596;28;8828;-72
2021/09/05 08:03:07;;;;;;;;;20.60;18.40;;;;;;;;5057710;28;8884;-73
2021/09/05 08:05:34;;;;;;;;;23.60;23.20;;;;;;;;5059201;28;8855;-74
2021/09/05 08:08:02;;;;;;;;;22.60;21.00;;;;;;;;5060133;28;8894;-74
2021/09/05 08:10:29;;;;;;;;;19.00;17.20;;;;;;;;5059570;28;9664;-74
2021/09/05 08:12:57;;;;;;;;;18.20;18.20;;;;;;;;5059515;28;9609;-72
2021/09/05 08:15:24;;;;;;;;;21.60;21.00;;;;;;;;5055974;28;8875;-73
2021/09/05 08:17:52;;;;;;;;;18.40;18.40;;;;;;;;5076691;28;8869;-73
2021/09/05 08:20:21;;;;;;;;;16.40;15.60;;;;;;;;5073453;28;8864;-73
2021/09/05 08:22:48;;;;;;;;;17.40;17.40;;;;;;;;5066586;28;8881;-73
2021/09/05 08:25:16;;;;;;;;;18.60;18.60;;;;;;;;5063045;28;8860;-73
2021/09/05 08:27:43;;;;;;;;;21.60;18.00;;;;;;;;5070871;28;8921;-74
2021/09/05 08:30:11;;;;;;;;;20.40;18.20;;;;;;;;5066963;28;8895;-74
2021/09/05 08:32:38;;;;;;;;;25.00;24.20;;;;;;;;5061715;28;8892;-74
2021/09/05 08:35:07;;;;;;;;;21.00;19.40;;;;;;;;5077264;28;8889;-72
2021/09/05 08:37:35;;;;;;;;;19.40;19.40;;;;;;;;5073124;28;8859;-74
2021/09/05 08:40:03;;;;;;;;;22.20;21.20;;;;;;;;5046100;28;9686;-74
2021/09/05 08:42:32;;;;;;;;;25.20;22.40;;;;;;;;5073603;28;8890;-74
2021/09/05 08:45:00;;;;;;;;;20.20;18.40;;;;;;;;5077575;28;8911;-74
2021/09/05 08:47:32;;;;;;;;;21.60;19.40;;;;;;;;5059880;28;8945;-74
2021/09/05 08:50:00;;;;;;;;;16.00;16.00;;;;;;;;5061517;28;8877;-74
2021/09/05 08:52:27;;;;;;;;;21.20;19.20;;;;;;;;5060441;28;8875;-74
2021/09/05 08:54:56;;;;;;;;;17.80;17.80;;;;;;;;5073781;28;8945;-74
2021/09/05 08:57:24;;;;;;;;;20.20;20.20;;;;;;;;5061414;28;8900;-74
2021/09/05 08:59:51;;;;;;;;;17.00;17.00;;;;;;;;5063106;28;8888;-74
2021/09/05 09:02:18;;;;;;;;;16.60;16.60;;;;;;;;5060040;28;8841;-74
2021/09/05 09:04:49;;;;;;;;;15.60;15.60;;;;;;;;5062709;28;8883;-74
2021/09/05 09:07:17;;;;;;;;;18.60;15.80;;;;;;;;5060325;28;8856;-74
2021/09/05 09:09:58;;;;;;;;;16.40;16.40;;;;;;;;5064551;28;8878;-75
2021/09/05 09:12:41;;;;;;;;;17.20;17.20;;;;;;;;5060320;28;8892;-74
2021/09/05 09:15:22;;;;;;;;;17.20;17.20;;;;;;;;5056074;28;8879;-74
2021/09/05 09:17:55;;;;;;;;;17.60;16.60;;;;;;;;5061346;28;8905;-75
2021/09/05 09:20:33;;;;;;;;;17.80;15.00;;;;;;;;5060937;28;8888;-74
2021/09/05 09:23:13;;;;;;;;;15.20;15.20;;;;;;;;5065380;28;8872;-74
2021/09/05 09:25:58;;;;;;;;;13.80;13.80;;;;;;;;5064290;28;8856;-75
2021/09/05 09:28:32;;;;;;;;;16.00;16.00;;;;;;;;5065238;28;8868;-75
2021/09/05 09:31:02;;;;;;;;;16.40;16.40;;;;;;;;5064071;28;8842;-74
2021/09/05 09:33:31;;;;;;;;;14.00;14.00;;;;;;;;5063830;28;8895;-73
2021/09/05 09:35:59;;;;;;;;;12.00;12.00;;;;;;;;5063589;28;8855;-74
2021/09/05 09:38:27;;;;;;;;;13.60;13.20;;;;;;;;5046162;28;8851;-74
2021/09/05 09:41:09;;;;;;;;;14.00;14.00;;;;;;;;5065860;28;8884;-75
2021/09/05 09:43:51;;;;;;;;;13.60;13.60;;;;;;;;5062028;28;8880;-75
2021/09/05 09:46:20;;;;;;;;;9.00;9.00;;;;;;;;5060203;28;8880;-75
2021/09/05 09:48:51;;;;;;;;;12.60;12.60;;;;;;;;5064842;28;8872;-75
2021/09/05 09:51:19;;;;;;;;;16.20;14.20;;;;;;;;5063882;28;8891;-75
2021/09/05 09:53:47;;;;;;;;;15.00;13.00;;;;;;;;5064769;28;8889;-75
2021/09/05 09:56:17;;;;;;;;;9.40;9.40;;;;;;;;5058085;28;8867;-75
2021/09/05 09:58:45;;;;;;;;;14.20;13.40;;;;;;;;5062827;28;8860;-73
2021/09/05 10:01:16;;;;;;;;;13.80;13.80;;;;;;;;5065813;28;8838;-73
2021/09/05 10:03:44;;;;;;;;;11.60;11.60;;;;;;;;5066689;28;8918;-74
2021/09/05 10:06:12;;;;;;;;;14.40;10.80;;;;;;;;5068035;28;8859;-74
2021/09/05 10:08:41;;;;;;;;;17.00;15.40;;;;;;;;5066104;28;8917;-74
2021/09/05 10:11:10;;;;;;;;;13.20;13.20;;;;;;;;5074203;28;8890;-75
2021/09/05 10:13:41;;;;;;;;;13.20;10.60;;;;;;;;5077737;28;8881;-74
2021/09/05 10:16:10;;;;;;;;;14.80;13.00;;;;;;;;5063395;28;9617;-74
2021/09/05 10:18:42;;;;;;;;;12.20;11.80;;;;;;;;5072362;28;8860;-74
2021/09/05 10:21:11;;;;;;;;;10.20;10.20;;;;;;;;5082731;28;8986;-75
2021/09/05 10:23:40;;;;;;;;;11.00;11.00;;;;;;;;5063669;28;8884;-74
2021/09/05 10:26:09;;;;;;;;;11.40;11.40;;;;;;;;5069786;28;8953;-74
2021/09/05 10:28:39;;;;;;;;;11.40;11.40;;;;;;;;5065386;28;8976;-75
2021/09/05 10:31:07;;;;;;;;;12.60;12.60;;;;;;;;5071849;28;8844;-75
2021/09/05 10:33:36;;;;;;;;;10.20;10.20;;;;;;;;5077742;28;8880;-75
2021/09/05 10:36:12;;;;;;;;;13.80;13.80;;;;;;;;5065369;28;8986;-75
2021/09/05 10:38:40;;;;;;;;;9.40;9.40;;;;;;;;5065607;28;8895;-75
2021/09/05 10:41:10;;;;;;;;;12.40;12.00;;;;;;;;5058609;28;8903;-74
2021/09/05 10:43:58;;;;;;;;;9.60;9.60;;;;;;;;5049897;28;8929;-74
2021/09/05 10:46:27;;;;;;;;;9.20;9.00;;;;;;;;5062824;28;8923;-76
2021/09/05 10:48:55;;;;;;;;;10.00;10.00;;;;;;;;5064826;28;8866;-74
2021/09/05 10:51:24;;;;;;;;;11.40;11.40;;;;;;;;5062891;28;8863;-74
2021/09/05 10:53:53;;;;;;;;;12.40;10.60;;;;;;;;5064636;28;8928;-75
2021/09/05 10:56:22;;;;;;;;;10.80;10.80;;;;;;;;5062696;28;8886;-75
2021/09/05 10:58:55;;;;;;;;;9.20;9.20;;;;;;;;5064847;28;8868;-75
2021/09/05 11:01:27;;;;;;;;;12.40;10.80;;;;;;;;5063047;28;8824;-75
2021/09/05 11:04:18;;;;;;;;;12.20;12.20;;;;;;;;5064806;28;8926;-76
2021/09/05 11:06:46;;;;;;;;;11.60;11.00;;;;;;;;5064054;28;8872;-75
2021/09/05 11:09:45;;;;;;;;;11.80;11.80;;;;;;;;5064306;28;8898;-75
2021/09/05 11:12:15;;;;;;;;;13.60;13.60;;;;;;;;5063213;28;9755;-75
2021/09/05 11:15:11;;;;;;;;;11.00;11.00;;;;;;;;5046455;28;8896;-75
2021/09/05 11:17:39;;;;;;;;;10.80;10.00;;;;;;;;5028102;28;9738;-76
2021/09/05 11:20:09;;;;;;;;;10.20;10.20;;;;;;;;5064987;28;8966;-75
2021/09/05 11:22:38;;;;;;;;;10.00;10.00;;;;;;;;5063335;28;8906;-73
2021/09/05 11:25:20;;;;;;;;;12.00;10.40;;;;;;;;5064860;28;8914;-74
2021/09/05 11:27:59;;;;;;;;;10.00;10.00;;;;;;;;5059744;28;8875;-74
2021/09/05 11:30:29;;;;;;;;;11.60;10.00;;;;;;;;5063238;28;8934;-75
2021/09/05 11:33:02;;;;;;;;;9.60;9.60;;;;;;;;5061743;28;8864;-74
2021/09/05 11:35:35;;;;;;;;;12.40;9.40;;;;;;;;5063273;28;9657;-76
2021/09/05 11:38:03;;;;;;;;;9.80;9.80;;;;;;;;5063859;28;8886;-74
2021/09/05 11:40:30;;;;;;;;;9.00;9.00;;;;;;;;5063189;28;8892;-74
2021/09/05 11:42:58;;;;;;;;;10.40;10.40;;;;;;;;5063666;28;8888;-74
2021/09/05 11:45:27;;;;;;;;;8.60;8.60;;;;;;;;5062131;28;8986;-76
2021/09/05 11:48:01;;;;;;;;;11.60;11.60;;;;;;;;5056997;28;8955;-75
2021/09/05 11:50:29;;;;;;;;;11.00;11.00;;;;;;;;5043204;28;8868;-76
2021/09/05 11:52:57;;;;;;;;;22.60;22.60;;;;;;;;5062790;28;8879;-76
2021/09/05 11:55:24;;;;;;;;;33.80;30.60;;;;;;;;5064191;28;8894;-75
2021/09/05 11:57:54;;;;;;;;;15.20;14.00;;;;;;;;5062445;28;8875;-75
2021/09/05 12:00:28;;;;;;;;;11.40;11.40;;;;;;;;5063145;28;8859;-75
2021/09/05 12:02:56;;;;;;;;;7.20;7.20;;;;;;;;5062921;28;9653;-76
2021/09/05 12:05:24;;;;;;;;;10.20;10.20;;;;;;;;5063177;28;8905;-75
2021/09/05 12:07:52;;;;;;;;;124.67;122.67;;;;;;;;5063333;28;8882;-76
2021/09/05 12:10:20;;;;;;;;;12.00;12.00;;;;;;;;5063049;28;9110;-75
2021/09/05 12:12:59;;;;;;;;;11.60;11.60;;;;;;;;5063027;28;9650;-76
2021/09/05 12:15:35;;;;;;;;;10.60;10.60;;;;;;;;5059802;28;8876;-74
2021/09/05 12:18:03;;;;;;;;;8.60;8.60;;;;;;;;5062288;28;9002;-75
2021/09/05 12:20:42;;;;;;;;;10.00;9.20;;;;;;;;5062135;28;8878;-76
2021/09/05 12:23:20;;;;;;;;;10.00;8.80;;;;;;;;5062326;28;8872;-76
2021/09/05 12:25:47;;;;;;;;;9.40;8.80;;;;;;;;5064038;28;8935;-76
2021/09/05 12:28:21;;;;;;;;;9.60;9.60;;;;;;;;5062818;28;8889;-75
2021/09/05 12:30:55;;;;;;;;;9.00;9.00;;;;;;;;5062529;28;8796;-77
2021/09/05 12:33:32;;;;;;;;;8.20;8.20;;;;;;;;5058878;28;8880;-74
2021/09/05 12:36:10;;;;;;;;;9.80;8.40;;;;;;;;5060427;28;9002;-74
2021/09/05 12:38:38;;;;;;;;;12.00;9.00;;;;;;;;5062557;28;9625;-76
2021/09/05 12:41:07;;;;;;;;;7.20;7.20;;;;;;;;5065444;28;8873;-75
2021/09/05 12:43:42;;;;;;;;;8.80;7.40;;;;;;;;5062812;28;8886;-75
2021/09/05 12:46:12;;;;;;;;;7.40;7.40;;;;;;;;5059268;28;8896;-76
2021/09/05 12:48:41;;;;;;;;;8.00;8.00;;;;;;;;5065257;28;9022;-75
2021/09/05 12:51:11;;;;;;;;;8.00;8.00;;;;;;;;5061015;28;8929;-76
2021/09/05 12:53:51;;;;;;;;;4.00;4.00;;;;;;;;5063366;28;8867;-77
2021/09/05 12:56:18;;;;;;;;;8.60;7.20;;;;;;;;5071734;28;8869;-76
2021/09/05 12:58:45;;;;;;;;;8.60;8.60;;;;;;;;5084626;28;8907;-77
2021/09/05 13:01:23;;;;;;;;;5.00;5.00;;;;;;;;5086282;28;8822;-77
2021/09/05 13:03:51;;;;;;;;;8.40;8.20;;;;;;;;5071040;28;9562;-77
2021/09/05 13:06:19;;;;;;;;;8.80;8.80;;;;;;;;5067152;28;8892;-77
2021/09/05 13:08:47;;;;;;;;;8.20;8.20;;;;;;;;5067913;28;8844;-77
2021/09/05 13:11:15;;;;;;;;;7.40;7.40;;;;;;;;5064104;28;9642;-76
2021/09/05 13:13:42;;;;;;;;;6.00;6.00;;;;;;;;5081892;28;8845;-77
2021/09/05 13:16:10;;;;;;;;;6.40;6.40;;;;;;;;5066208;28;8887;-77
2021/09/05 13:18:38;;;;;;;;;9.00;8.00;;;;;;;;5067555;28;8875;-77
2021/09/05 13:21:06;;;;;;;;;8.20;8.20;;;;;;;;5066346;28;8868;-78
2021/09/05 13:23:34;;;;;;;;;6.80;6.80;;;;;;;;5067301;28;8934;-77
2021/09/05 13:26:01;;;;;;;;;9.20;8.80;;;;;;;;5067188;28;8902;-77
2021/09/05 13:28:28;;;;;;;;;6.80;6.80;;;;;;;;5066554;28;9729;-77
2021/09/05 13:30:56;;;;;;;;;7.40;7.40;;;;;;;;5076827;28;8799;-77
2021/09/05 13:33:23;;;;;;;;;9.00;7.00;;;;;;;;5076155;28;9671;-77
2021/09/05 13:35:53;;;;;;;;;5.80;5.80;;;;;;;;5067283;28;8894;-77
2021/09/05 13:38:21;;;;;;;;;5.00;5.00;;;;;;;;5069115;28;8875;-77
2021/09/05 13:40:49;;;;;;;;;7.00;7.00;;;;;;;;5081596;28;8882;-75
2021/09/05 13:43:17;;;;;;;;;5.80;5.80;;;;;;;;5066658;28;8856;-75
2021/09/05 13:45:45;;;;;;;;;5.60;5.60;;;;;;;;5070530;28;9003;-75
2021/09/05 13:48:13;;;;;;;;;6.00;6.00;;;;;;;;5069448;28;8877;-75
2021/09/05 13:50:40;;;;;;;;;8.00;6.20;;;;;;;;5071839;28;8879;-76
2021/09/05 13:53:09;;;;;;;;;6.80;6.80;;;;;;;;5067533;28;8887;-76
2021/09/05 13:55:36;;;;;;;;;7.60;6.00;;;;;;;;5047768;28;8883;-75
2021/09/05 13:58:04;;;;;;;;;5.00;5.00;;;;;;;;5067112;28;8886;-76
2021/09/05 14:00:32;;;;;;;;;5.40;5.40;;;;;;;;5065879;28;8808;-77
2021/09/05 14:02:59;;;;;;;;;5.00;5.00;;;;;;;;5066243;28;8911;-76
2021/09/05 14:05:27;;;;;;;;;6.00;6.00;;;;;;;;5086918;28;8849;-76
2021/09/05 14:07:54;;;;;;;;;7.60;7.60;;;;;;;;5085181;28;8885;-76
2021/09/05 14:10:23;;;;;;;;;8.80;8.80;;;;;;;;5054168;28;8867;-76
2021/09/05 14:12:50;;;;;;;;;6.80;6.80;;;;;;;;5044780;28;8883;-76
2021/09/05 14:15:17;;;;;;;;;9.00;7.20;;;;;;;;5071742;28;8905;-76
2021/09/05 14:17:45;;;;;;;;;8.40;8.40;;;;;;;;5065776;28;8863;-76
2021/09/05 14:20:13;;;;;;;;;7.40;7.40;;;;;;;;5073734;28;8873;-76
2021/09/05 14:22:40;;;;;;;;;6.00;6.00;;;;;;;;5086018;28;8899;-77
2021/09/05 14:25:10;;;;;;;;;9.40;7.60;;;;;;;;5085812;28;8873;-76
2021/09/05 14:27:43;;;;;;;;;8.00;8.00;;;;;;;;5086550;28;8912;-77
2021/09/05 14:30:15;;;;;;;;;7.60;7.60;;;;;;;;5084727;28;8884;-77
2021/09/05 14:32:50;;;;;;;;;5.40;5.40;;;;;;;;5080259;28;8860;-76
2021/09/05 14:35:26;;;;;;;;;8.00;6.20;;;;;;;;5057445;28;8979;-76
2021/09/05 14:49:04;;;;;;;;;8.00;8.00;;;;;;;;5086141;28;8841;-75
2021/09/05 14:53:58;;;;;;;;;7.00;7.00;;;;;;;;5061590;28;9048;-75
2021/09/05 14:57:17;;;;;;;;;6.80;6.80;;;;;;;;5084588;28;8849;-76
2021/09/05 14:59:47;;;;;;;;;6.60;6.40;;;;;;;;5067146;28;8849;-76